createdAt,value
2017-12-15T00:01:12.869Z,3.50
2017-12-15T00:03:41.426Z,3.20
2017-12-15T00:06:09.245Z,2.80
2017-12-15T00:08:37.093Z,2.10
2017-12-15T00:11:04.909Z,3.30
2017-12-15T00:13:32.695Z,3.33
2017-12-15T00:16:01.358Z,3.92
2017-12-15T00:18:29.174Z,5.40
2017-12-15T00:20:56.992Z,5.10
2017-12-15T00:23:24.848Z,4.30
2017-12-15T00:25:52.628Z,5.37
2017-12-15T00:28:21.098Z,4.85
2017-12-15T00:30:48.843Z,5.10
2017-12-15T00:33:16.550Z,5.53
2017-12-15T00:35:44.237Z,4.95
2017-12-15T00:38:11.987Z,6.50
2017-12-15T00:40:39.682Z,5.70
2017-12-15T00:43:08.181Z,5.72
2017-12-15T00:45:35.938Z,5.82
2017-12-15T00:48:03.654Z,5.62
2017-12-15T00:50:31.357Z,4.80
2017-12-15T00:52:59.122Z,5.07
2017-12-15T00:55:26.806Z,4.07
2017-12-15T00:57:55.277Z,4.50
2017-12-15T01:00:23.023Z,4.32
2017-12-15T01:02:50.722Z,4.50
2017-12-15T01:05:18.447Z,3.95
2017-12-15T01:07:46.194Z,2.72
2017-12-15T01:10:13.879Z,3.50
2017-12-15T01:12:42.335Z,3.10
2017-12-15T01:15:10.095Z,3.87
2017-12-15T01:17:37.794Z,4.50
2017-12-15T01:20:06.270Z,3.05
2017-12-15T01:22:34.850Z,2.62
2017-12-15T01:25:03.320Z,2.90
2017-12-15T01:27:31.794Z,2.85
2017-12-15T01:30:00.294Z,2.70
2017-12-15T01:32:27.974Z,3.15
2017-12-15T01:34:55.659Z,2.25
2017-12-15T01:37:23.402Z,3.55
2017-12-15T01:39:51.088Z,3.58
2017-12-15T01:42:18.794Z,2.70
2017-12-15T01:44:46.565Z,2.90
2017-12-15T01:47:14.248Z,2.15
2017-12-15T01:49:41.931Z,2.95
2017-12-15T01:52:09.667Z,3.10
2017-12-15T01:54:37.361Z,2.80
2017-12-15T01:57:05.037Z,2.60
2017-12-15T01:59:33.533Z,3.78
2017-12-15T02:02:01.218Z,1.85
2017-12-15T02:04:28.928Z,1.98
2017-12-15T02:06:56.671Z,3.00
2017-12-15T02:09:24.353Z,3.00
2017-12-15T02:11:52.042Z,2.90
2017-12-15T02:14:19.813Z,3.10
2017-12-15T02:16:47.497Z,2.15
2017-12-15T02:19:15.212Z,3.28
2017-12-15T02:21:43.718Z,2.80
2017-12-15T02:24:11.404Z,2.37
2017-12-15T02:26:39.082Z,4.25
2017-12-15T02:29:06.819Z,2.20
2017-12-15T02:31:34.498Z,2.70
2017-12-15T02:34:02.195Z,2.35
2017-12-15T02:36:29.934Z,2.58
2017-12-15T02:38:57.622Z,2.65
2017-12-15T02:41:25.310Z,2.30
2017-12-15T02:43:53.503Z,2.47
2017-12-15T02:46:21.198Z,2.10
2017-12-15T02:48:48.891Z,2.72
2017-12-15T02:51:16.621Z,2.33
2017-12-15T02:53:45.072Z,2.35
2017-12-15T02:56:12.759Z,2.20
2017-12-15T02:58:42.525Z,2.40
2017-12-15T03:01:11.504Z,2.25
2017-12-15T03:03:39.261Z,1.98
2017-12-15T03:06:07.771Z,2.15
2017-12-15T03:08:35.458Z,2.60
2017-12-15T03:11:03.962Z,2.30
2017-12-15T03:13:31.702Z,2.75
2017-12-15T03:16:00.146Z,2.12
2017-12-15T03:18:27.835Z,3.87
2017-12-15T03:20:56.576Z,1.95
2017-12-15T03:23:24.254Z,3.05
2017-12-15T03:25:51.934Z,2.00
2017-12-15T03:28:20.448Z,3.50
2017-12-15T03:30:48.140Z,3.70
2017-12-15T03:33:15.828Z,1.67
2017-12-15T03:35:44.336Z,2.42
2017-12-15T03:38:12.017Z,1.50
2017-12-15T03:40:39.696Z,2.00
2017-12-15T03:43:07.433Z,3.72
2017-12-15T03:45:35.138Z,1.73
2017-12-15T03:48:02.817Z,2.30
2017-12-15T03:50:31.320Z,2.60
2017-12-15T03:52:59.014Z,2.00
2017-12-15T03:55:26.695Z,1.70
2017-12-15T03:57:54.433Z,2.22
2017-12-15T04:00:22.114Z,1.95
2017-12-15T04:02:49.806Z,1.87
2017-12-15T04:05:17.556Z,2.00
2017-12-15T04:07:46.054Z,1.85
2017-12-15T04:10:13.747Z,2.22
2017-12-15T04:12:41.490Z,1.87
2017-12-15T04:15:09.258Z,2.50
2017-12-15T04:17:36.970Z,3.03
2017-12-15T04:20:05.473Z,2.37
2017-12-15T04:22:33.181Z,3.17
2017-12-15T04:25:00.866Z,1.80
2017-12-15T04:27:28.613Z,2.17
2017-12-15T04:29:56.302Z,2.10
2017-12-15T04:32:24.771Z,2.78
2017-12-15T04:34:53.290Z,2.40
2017-12-15T04:37:20.970Z,4.10
2017-12-15T04:39:48.658Z,18.62
2017-12-15T04:42:16.424Z,5.15
2017-12-15T04:44:44.105Z,2.97
2017-12-15T04:47:12.566Z,2.10
2017-12-15T04:49:41.121Z,2.10
2017-12-15T04:52:08.822Z,1.30
2017-12-15T04:54:37.270Z,2.20
2017-12-15T04:57:05.015Z,2.10
2017-12-15T04:59:32.706Z,2.12
2017-12-15T05:02:01.160Z,1.90
2017-12-15T05:04:28.893Z,1.83
2017-12-15T05:06:56.594Z,2.25
2017-12-15T05:09:24.295Z,2.95
2017-12-15T05:11:52.118Z,2.47
2017-12-15T05:14:19.798Z,2.97
2017-12-15T05:16:48.320Z,3.20
2017-12-15T05:19:16.058Z,3.15
2017-12-15T05:21:43.760Z,3.35
2017-12-15T05:24:11.515Z,4.75
2017-12-15T05:26:40.030Z,3.75
2017-12-15T05:29:08.480Z,2.92
2017-12-15T05:31:36.233Z,2.97
2017-12-15T05:34:03.996Z,4.03
2017-12-15T05:36:31.688Z,3.08
2017-12-15T05:39:00.142Z,3.20
2017-12-15T05:41:27.888Z,2.97
2017-12-15T05:43:55.904Z,3.30
2017-12-15T05:46:24.354Z,3.50
2017-12-15T05:48:52.159Z,4.50
2017-12-15T05:51:20.621Z,2.50
2017-12-15T05:53:49.078Z,3.45
2017-12-15T05:56:16.836Z,2.92
2017-12-15T05:58:44.522Z,2.58
2017-12-15T06:01:12.968Z,3.70
2017-12-15T06:03:40.718Z,3.95
2017-12-15T06:06:08.411Z,3.62
2017-12-15T06:08:36.099Z,4.50
2017-12-15T06:11:04.053Z,4.43
2017-12-15T06:13:32.510Z,4.90
2017-12-15T06:16:00.193Z,5.65
2017-12-15T06:18:27.938Z,5.43
2017-12-15T06:20:56.216Z,5.10
2017-12-15T06:23:24.707Z,5.57
2017-12-15T06:25:53.210Z,5.57
2017-12-15T06:28:20.890Z,6.75
2017-12-15T06:30:48.606Z,7.25
2017-12-15T06:33:17.151Z,8.15
2017-12-15T06:35:44.841Z,6.25
2017-12-15T06:38:13.302Z,8.30
2017-12-15T06:40:41.055Z,10.52
2017-12-15T06:43:08.761Z,9.65
2017-12-15T06:45:36.462Z,8.02
2017-12-15T06:48:04.235Z,8.57
2017-12-15T06:50:31.934Z,9.40
2017-12-15T06:52:59.627Z,8.80
2017-12-15T06:55:27.407Z,6.90
2017-12-15T06:57:55.133Z,7.43
2017-12-15T07:00:22.833Z,7.32
2017-12-15T07:02:50.580Z,7.80
2017-12-15T07:05:18.298Z,7.75
2017-12-15T07:07:45.980Z,7.53
2017-12-15T07:10:13.774Z,8.40
2017-12-15T07:12:41.472Z,9.55
2017-12-15T07:15:09.920Z,8.77
2017-12-15T07:17:37.680Z,8.75
2017-12-15T07:20:05.395Z,8.82
2017-12-15T07:22:33.081Z,9.20
2017-12-15T07:25:00.823Z,9.93
2017-12-15T07:27:28.546Z,10.23
2017-12-15T07:29:56.998Z,10.18
2017-12-15T07:32:24.743Z,10.95
2017-12-15T07:34:52.421Z,9.93
2017-12-15T07:37:20.108Z,9.85
2017-12-15T07:39:48.641Z,10.50
2017-12-15T07:42:16.380Z,12.60
2017-12-15T07:44:44.075Z,12.10
2017-12-15T07:47:11.829Z,14.60
2017-12-15T07:49:39.532Z,14.70
2017-12-15T07:52:07.990Z,17.52
2017-12-15T07:54:35.740Z,19.90
2017-12-15T07:57:03.487Z,12.98
2017-12-15T07:59:31.177Z,14.40
2017-12-15T08:01:58.921Z,13.57
2017-12-15T08:04:26.620Z,13.38
2017-12-15T08:06:55.117Z,14.30
2017-12-15T08:09:22.879Z,15.65
2017-12-15T08:11:50.574Z,14.02
2017-12-15T08:14:18.300Z,16.10
2017-12-15T08:16:46.053Z,14.20
2017-12-15T08:19:13.758Z,20.58
2017-12-15T08:21:41.453Z,24.52
2017-12-15T08:24:09.965Z,20.15
2017-12-15T08:26:37.648Z,19.83
2017-12-15T08:29:07.750Z,26.02
2017-12-15T08:31:35.586Z,23.42
2017-12-15T08:34:03.287Z,18.02
2017-12-15T08:36:31.790Z,16.65
2017-12-15T08:38:59.538Z,16.77
2017-12-15T08:41:27.228Z,15.13
2017-12-15T08:43:55.702Z,14.65
2017-12-15T08:46:24.254Z,18.92
2017-12-15T08:48:51.937Z,22.05
2017-12-15T08:51:19.625Z,15.98
2017-12-15T08:53:47.374Z,15.77
2017-12-15T08:56:15.103Z,19.73
2017-12-15T08:58:42.794Z,27.30
2017-12-15T09:01:11.326Z,22.75
2017-12-15T09:03:39.018Z,16.42
2017-12-15T09:06:06.719Z,26.48
2017-12-15T09:08:34.466Z,16.08
2017-12-15T09:11:02.919Z,16.20
2017-12-15T09:13:30.610Z,17.27
2017-12-15T09:15:58.374Z,17.83
2017-12-15T09:18:26.067Z,18.00
2017-12-15T09:20:53.769Z,17.85
2017-12-15T09:23:22.284Z,16.58
2017-12-15T09:25:49.970Z,17.85
2017-12-15T09:28:17.661Z,18.62
2017-12-15T09:30:45.421Z,17.58
2017-12-15T09:33:13.110Z,17.42
2017-12-15T09:35:40.813Z,20.95
2017-12-15T09:38:08.573Z,22.98
2017-12-15T09:40:36.261Z,23.10
2017-12-15T09:43:03.969Z,21.10
2017-12-15T09:45:31.730Z,21.40
2017-12-15T09:47:59.422Z,22.60
2017-12-15T09:50:27.882Z,21.73
2017-12-15T09:52:55.629Z,21.83
2017-12-15T09:55:23.322Z,19.10
2017-12-15T09:57:51.002Z,19.02
2017-12-15T10:00:18.777Z,18.42
2017-12-15T10:02:47.226Z,18.75
2017-12-15T10:05:14.918Z,18.20
2017-12-15T10:07:43.435Z,21.35
2017-12-15T10:10:11.122Z,21.70
2017-12-15T10:12:38.811Z,21.50
2017-12-15T10:15:07.320Z,22.85
2017-12-15T10:17:35.007Z,23.00
2017-12-15T10:20:02.696Z,21.50
2017-12-15T10:22:30.445Z,20.23
2017-12-15T10:24:58.135Z,25.98
2017-12-15T10:27:26.597Z,21.27
2017-12-15T10:29:54.342Z,26.50
2017-12-15T10:32:22.030Z,25.20
2017-12-15T10:34:50.486Z,21.60
2017-12-15T10:37:18.230Z,25.40
2017-12-15T10:39:45.919Z,26.75
2017-12-15T10:42:13.605Z,22.92
2017-12-15T10:44:41.355Z,25.15
2017-12-15T10:47:09.809Z,24.23
2017-12-15T10:49:37.497Z,23.45
2017-12-15T10:52:06.010Z,23.73
2017-12-15T10:54:33.703Z,26.25
2017-12-15T10:57:01.394Z,24.17
2017-12-15T10:59:29.133Z,23.95
2017-12-15T11:01:56.817Z,22.02
2017-12-15T11:04:25.266Z,22.42
2017-12-15T11:06:53.022Z,22.20
2017-12-15T11:09:20.705Z,22.50
2017-12-15T11:11:49.166Z,20.37
2017-12-15T11:14:16.960Z,19.30
2017-12-15T11:16:44.722Z,16.48
2017-12-15T11:19:12.484Z,15.85
2017-12-15T11:21:40.300Z,15.88
2017-12-15T11:24:08.052Z,11.05
2017-12-15T11:26:35.800Z,13.90
2017-12-15T11:29:05.579Z,12.48
2017-12-15T11:31:33.346Z,15.55
2017-12-15T11:34:01.115Z,11.12
2017-12-15T11:36:28.947Z,13.45
2017-12-15T11:38:57.467Z,15.60
2017-12-15T11:41:25.231Z,14.65
2017-12-15T11:43:53.059Z,14.65
2017-12-15T11:46:21.596Z,11.50
2017-12-15T11:48:49.348Z,8.95
2017-12-15T11:51:17.955Z,10.15
2017-12-15T11:53:45.700Z,7.85
2017-12-15T11:56:13.444Z,7.68
2017-12-15T11:58:41.246Z,8.07
2017-12-15T12:01:09.000Z,7.05
2017-12-15T12:03:36.811Z,5.30
2017-12-15T12:06:04.619Z,5.00
2017-12-15T12:08:32.396Z,5.05
2017-12-15T12:11:00.162Z,5.00
2017-12-15T12:13:28.754Z,5.45
2017-12-15T12:15:57.264Z,6.10
2017-12-15T12:18:25.028Z,5.47
2017-12-15T12:20:53.023Z,5.45
2017-12-15T12:23:21.549Z,4.40
2017-12-15T12:25:50.062Z,5.68
2017-12-15T12:28:17.880Z,4.37
2017-12-15T12:30:46.382Z,4.60
2017-12-15T12:33:14.139Z,3.97
2017-12-15T12:35:42.157Z,4.32
2017-12-15T12:38:09.905Z,3.87
2017-12-15T12:40:37.655Z,3.35
2017-12-15T12:43:05.456Z,3.22
2017-12-15T12:45:33.202Z,4.57
2017-12-15T12:48:00.949Z,3.83
2017-12-15T12:50:28.758Z,2.53
2017-12-15T12:52:57.262Z,3.65
2017-12-15T12:55:25.010Z,3.65
2017-12-15T12:57:52.818Z,3.75
2017-12-15T13:00:20.593Z,3.65
2017-12-15T13:02:48.346Z,4.25
2017-12-15T13:05:16.194Z,4.40
2017-12-15T13:07:43.950Z,5.90
2017-12-15T13:10:11.696Z,6.05
2017-12-15T13:12:39.517Z,5.53
2017-12-15T13:15:07.295Z,6.72
2017-12-15T13:17:35.804Z,5.30
2017-12-15T13:20:03.631Z,4.32
2017-12-15T13:22:31.318Z,5.30
2017-12-15T13:24:59.800Z,5.00
2017-12-15T13:27:27.558Z,7.03
2017-12-15T13:29:56.019Z,5.15
2017-12-15T13:32:24.488Z,5.60
2017-12-15T13:34:52.371Z,6.22
2017-12-15T13:37:20.828Z,5.53
2017-12-15T13:39:48.510Z,6.87
2017-12-15T13:42:17.015Z,5.75
2017-12-15T13:44:44.702Z,5.30
2017-12-15T13:47:12.382Z,4.75
2017-12-15T13:49:40.121Z,4.85
2017-12-15T13:52:07.808Z,5.03
2017-12-15T13:54:35.494Z,4.70
2017-12-15T13:57:03.995Z,4.95
2017-12-15T13:59:31.679Z,4.90
2017-12-15T14:01:59.365Z,4.32
2017-12-15T14:04:27.100Z,4.07
2017-12-15T14:06:54.802Z,4.93
2017-12-15T14:09:23.243Z,4.53
2017-12-15T14:11:51.742Z,5.03
2017-12-15T14:14:19.426Z,3.83
2017-12-15T14:16:47.994Z,5.22
2017-12-15T14:19:16.504Z,4.20
2017-12-15T14:21:44.227Z,4.03
2017-12-15T14:24:11.914Z,3.92
2017-12-15T14:26:39.670Z,4.45
2017-12-15T14:29:07.358Z,4.50
2017-12-15T14:31:35.041Z,4.95
2017-12-15T14:34:02.818Z,4.07
2017-12-15T14:36:30.537Z,4.65
2017-12-15T14:38:58.273Z,6.15
2017-12-15T14:41:26.775Z,4.97
2017-12-15T14:43:54.497Z,5.60
2017-12-15T14:46:22.193Z,4.80
2017-12-15T14:48:51.848Z,5.35
2017-12-15T14:51:17.694Z,4.40
2017-12-15T14:53:46.141Z,6.10
2017-12-15T14:56:14.146Z,5.40
2017-12-15T14:58:41.834Z,3.95
2017-12-15T15:01:09.535Z,5.82
2017-12-15T15:03:37.283Z,7.00
2017-12-15T15:06:05.761Z,6.05
2017-12-15T15:08:33.451Z,6.60
2017-12-15T15:11:01.961Z,7.30
2017-12-15T15:13:29.643Z,6.35
2017-12-15T15:15:57.321Z,6.95
2017-12-15T15:18:25.087Z,7.43
2017-12-15T15:20:52.798Z,8.20
2017-12-15T15:23:26.643Z,8.50
2017-12-15T15:25:54.636Z,7.20
2017-12-15T15:28:22.313Z,8.20
2017-12-15T15:30:50.850Z,9.15
2017-12-15T15:33:18.567Z,8.23
2017-12-15T15:35:46.247Z,7.80
2017-12-15T15:38:13.998Z,10.65
2017-12-15T15:40:41.727Z,11.38
2017-12-15T15:43:10.238Z,9.63
2017-12-15T15:45:38.498Z,11.80
2017-12-15T15:48:06.213Z,11.32
2017-12-15T15:50:33.926Z,9.43
2017-12-15T15:53:01.727Z,10.75
2017-12-15T15:55:29.453Z,13.15
2017-12-15T15:57:57.877Z,10.77
2017-12-15T16:00:25.677Z,9.93
2017-12-15T16:02:53.403Z,10.85
2017-12-15T16:05:21.115Z,9.85
2017-12-15T16:07:48.892Z,9.05
2017-12-15T16:10:16.607Z,9.07
2017-12-15T16:12:45.091Z,10.85
2017-12-15T16:15:14.937Z,12.52
2017-12-15T16:17:42.674Z,10.65
2017-12-15T16:20:10.378Z,12.35
2017-12-15T16:22:38.143Z,13.80
2017-12-15T16:25:05.850Z,12.55
2017-12-15T16:27:34.330Z,12.75
2017-12-15T16:30:02.878Z,12.55
2017-12-15T16:32:31.443Z,13.32
2017-12-15T16:34:59.883Z,13.30
2017-12-15T16:37:29.834Z,11.48
2017-12-15T16:39:58.385Z,11.95
2017-12-15T16:42:27.742Z,12.37
2017-12-15T16:44:56.624Z,11.43
2017-12-15T16:47:25.123Z,14.07
2017-12-15T16:49:53.656Z,14.73
2017-12-15T16:52:23.359Z,15.80
2017-12-15T16:54:52.614Z,18.02
2017-12-15T16:57:21.854Z,18.85
2017-12-15T16:59:50.950Z,16.45
2017-12-15T17:02:19.533Z,17.33
2017-12-15T17:04:50.085Z,16.10
2017-12-15T17:07:19.351Z,16.23
2017-12-15T17:09:48.526Z,18.23
2017-12-15T17:12:16.609Z,16.05
2017-12-15T17:14:46.758Z,15.40
2017-12-15T17:17:15.209Z,21.90
2017-12-15T17:19:43.651Z,18.75
2017-12-15T17:22:17.968Z,17.48
2017-12-15T17:24:46.895Z,18.83
2017-12-15T17:27:16.907Z,20.17
2017-12-15T17:29:44.767Z,20.12
2017-12-15T17:32:14.653Z,19.90
2017-12-15T17:34:45.414Z,22.13
2017-12-15T17:37:15.023Z,20.05
2017-12-15T17:39:43.313Z,18.95
2017-12-15T17:42:11.824Z,20.60
2017-12-15T17:44:40.286Z,22.20
2017-12-15T17:47:08.799Z,20.30
2017-12-15T17:49:36.489Z,18.62
2017-12-15T17:52:04.186Z,19.92
2017-12-15T17:54:32.730Z,19.77
2017-12-15T17:57:00.443Z,19.87
2017-12-15T17:59:29.112Z,20.90
2017-12-15T18:01:57.638Z,20.33
2017-12-15T18:04:25.348Z,17.58
2017-12-15T18:06:53.896Z,19.05
2017-12-15T18:09:21.646Z,19.30
2017-12-15T18:11:49.345Z,19.60
2017-12-15T18:14:17.057Z,19.52
2017-12-15T18:16:44.792Z,18.92
2017-12-15T18:19:12.490Z,20.48
2017-12-15T18:21:40.283Z,19.95
2017-12-15T18:24:08.962Z,24.25
2017-12-15T18:26:37.615Z,21.83
2017-12-15T18:29:05.621Z,22.02
2017-12-15T18:31:34.229Z,20.75
2017-12-15T18:34:02.014Z,20.92
2017-12-15T18:36:29.906Z,21.02
2017-12-15T18:38:59.124Z,20.52
2017-12-15T18:41:28.270Z,19.58
2017-12-15T18:43:56.107Z,19.75
2017-12-15T18:46:23.978Z,20.17
2017-12-15T18:48:51.868Z,19.85
2017-12-15T18:51:23.427Z,19.90
2017-12-15T18:53:51.439Z,22.33
2017-12-15T18:56:20.140Z,25.67
2017-12-15T18:58:47.943Z,26.62
2017-12-15T19:01:15.883Z,26.40
2017-12-15T19:03:43.711Z,24.27
2017-12-15T19:06:13.159Z,28.17
2017-12-15T19:08:41.721Z,27.73
2017-12-15T19:11:09.507Z,36.20
2017-12-15T19:13:38.043Z,28.87
2017-12-15T19:16:06.758Z,29.20
2017-12-15T19:18:34.942Z,37.75
2017-12-15T19:21:02.770Z,35.30
2017-12-15T19:23:30.643Z,31.83
2017-12-15T19:25:58.428Z,31.20
2017-12-15T19:28:26.192Z,26.70
2017-12-15T19:30:54.042Z,31.25
2017-12-15T19:33:21.829Z,29.83
2017-12-15T19:35:49.613Z,28.52
2017-12-15T19:38:17.446Z,27.37
2017-12-15T19:40:45.206Z,37.38
2017-12-15T19:43:14.955Z,56.75
2017-12-15T19:45:43.626Z,77.28
2017-12-15T19:48:11.422Z,54.63
2017-12-15T19:50:39.354Z,47.05
2017-12-15T19:53:08.379Z,41.83
2017-12-15T19:55:36.202Z,41.95
2017-12-15T19:58:04.070Z,46.92
2017-12-15T20:00:31.950Z,41.60
2017-12-15T20:03:00.624Z,35.40
2017-12-15T20:05:28.399Z,33.03
2017-12-15T20:07:57.014Z,29.05
2017-12-15T20:10:24.826Z,27.27
2017-12-15T20:12:52.661Z,33.80
2017-12-15T20:15:20.667Z,40.40
2017-12-15T20:17:49.293Z,43.47
2017-12-15T20:20:16.979Z,42.25
2017-12-15T20:22:44.943Z,45.63
2017-12-15T20:25:12.851Z,42.97
2017-12-15T20:27:41.390Z,37.60
2017-12-15T20:30:09.253Z,37.47
2017-12-15T20:32:37.007Z,37.20
2017-12-15T20:35:04.846Z,34.13
2017-12-15T20:37:32.702Z,36.05
2017-12-15T20:40:00.494Z,43.75
2017-12-15T20:42:29.184Z,41.03
2017-12-15T20:44:57.014Z,40.83
2017-12-15T20:47:25.262Z,43.13
2017-12-15T20:49:53.829Z,51.78
2017-12-15T20:52:21.692Z,45.95
2017-12-15T20:54:51.174Z,50.67
2017-12-15T20:57:18.940Z,52.20
2017-12-15T20:59:46.836Z,63.90
2017-12-15T21:02:15.419Z,66.68
2017-12-15T21:04:43.958Z,57.20
2017-12-15T21:07:11.814Z,56.30
2017-12-15T21:09:39.587Z,51.70
2017-12-15T21:12:07.379Z,49.78
2017-12-15T21:14:36.249Z,50.55
2017-12-15T21:17:05.020Z,41.33
2017-12-15T21:19:32.781Z,45.15
2017-12-15T21:22:01.369Z,44.55
2017-12-15T21:24:29.222Z,43.22
2017-12-15T21:26:57.713Z,43.25
2017-12-15T21:29:25.524Z,41.10
2017-12-15T21:31:53.391Z,43.22
2017-12-15T21:34:21.163Z,39.90
2017-12-15T21:36:48.981Z,42.80
2017-12-15T21:39:16.733Z,41.65
2017-12-15T21:41:44.685Z,45.85
2017-12-15T21:44:12.543Z,42.47
2017-12-15T21:46:40.312Z,43.22
2017-12-15T21:49:08.109Z,42.78
2017-12-15T21:51:36.698Z,44.22
2017-12-15T21:54:05.424Z,39.85
2017-12-15T21:56:33.254Z,43.42
2017-12-15T21:59:01.202Z,43.40
2017-12-15T22:01:29.727Z,47.47
2017-12-15T22:03:57.477Z,43.08
2017-12-15T22:06:25.347Z,46.05
2017-12-15T22:08:53.177Z,50.83
2017-12-15T22:11:21.718Z,44.60
2017-12-15T22:13:51.014Z,45.83
2017-12-15T22:16:18.787Z,46.55
2017-12-15T22:18:46.549Z,49.65
2017-12-15T22:21:14.382Z,54.63
2017-12-15T22:23:42.137Z,67.72
2017-12-15T22:26:09.954Z,71.78
2017-12-15T22:28:38.547Z,77.32
2017-12-15T22:31:07.084Z,68.18
2017-12-15T22:33:35.601Z,63.45
2017-12-15T22:36:04.190Z,58.60
2017-12-15T22:38:32.706Z,57.97
2017-12-15T22:41:00.470Z,55.55
2017-12-15T22:43:28.282Z,58.20
2017-12-15T22:45:56.829Z,54.13
2017-12-15T22:48:24.581Z,54.58
2017-12-15T22:50:52.503Z,52.72
2017-12-15T22:53:20.284Z,48.50
2017-12-15T22:55:48.037Z,52.83
2017-12-15T22:58:15.845Z,52.92
2017-12-15T23:00:43.591Z,50.53
2017-12-15T23:03:11.339Z,55.15
2017-12-15T23:05:39.142Z,48.42
2017-12-15T23:08:06.886Z,51.30
2017-12-15T23:10:34.639Z,47.92
2017-12-15T23:13:02.534Z,51.30
2017-12-15T23:15:30.292Z,48.53
2017-12-15T23:17:58.049Z,48.63
2017-12-15T23:20:25.859Z,54.65
2017-12-15T23:22:53.619Z,48.13
2017-12-15T23:25:21.369Z,45.70
2017-12-15T23:27:49.943Z,43.75
2017-12-15T23:30:18.471Z,49.17
2017-12-15T23:32:46.226Z,51.15
2017-12-15T23:35:14.074Z,47.85
2017-12-15T23:37:41.836Z,46.83
2017-12-15T23:40:09.586Z,45.92
2017-12-15T23:42:37.407Z,47.80
2017-12-15T23:45:05.162Z,45.53
2017-12-15T23:47:32.924Z,52.35
2017-12-15T23:50:00.798Z,53.45
2017-12-15T23:52:28.562Z,53.78
2017-12-15T23:55:08.166Z,53.10
2017-12-15T23:57:35.930Z,51.33
